sensor_id;sensor_type;location;lat;lon;timestamp;P1;durP1;ratioP1;P2;durP2;ratioP2
37445;SDS011;23307;51.136;14.942;2022-08-19T00:01:14;10.45;;;8.68;;
37445;SDS011;23307;51.136;14.942;2022-08-19T00:03:40;11.40;;;8.70;;
37445;SDS011;23307;51.136;14.942;2022-08-19T00:06:06;9.40;;;8.48;;
37445;SDS011;23307;51.136;14.942;2022-08-19T00:08:31;9.48;;;8.52;;
37445;SDS011;23307;51.136;14.942;2022-08-19T00:10:57;9.52;;;8.63;;
37445;SDS011;23307;51.136;14.942;2022-08-19T00:13:22;9.52;;;8.02;;
37445;SDS011;23307;51.136;14.942;2022-08-19T00:15:48;9.63;;;8.63;;
37445;SDS011;23307;51.136;14.942;2022-08-19T00:18:13;8.95;;;7.88;;
37445;SDS011;23307;51.136;14.942;2022-08-19T00:20:39;8.70;;;7.90;;
37445;SDS011;23307;51.136;14.942;2022-08-19T00:23:05;8.73;;;7.93;;
37445;SDS011;23307;51.136;14.942;2022-08-19T00:25:31;11.50;;;7.90;;
37445;SDS011;23307;51.136;14.942;2022-08-19T00:27:58;9.18;;;8.25;;
37445;SDS011;23307;51.136;14.942;2022-08-19T00:30:24;8.80;;;7.47;;
37445;SDS011;23307;51.136;14.942;2022-08-19T00:32:52;9.13;;;7.45;;
37445;SDS011;23307;51.136;14.942;2022-08-19T00:35:19;10.18;;;7.22;;
37445;SDS011;23307;51.136;14.942;2022-08-19T00:37:46;8.55;;;6.93;;
37445;SDS011;23307;51.136;14.942;2022-08-19T00:40:12;7.32;;;6.63;;
37445;SDS011;23307;51.136;14.942;2022-08-19T00:42:38;8.95;;;6.00;;
37445;SDS011;23307;51.136;14.942;2022-08-19T00:45:09;7.97;;;5.30;;
37445;SDS011;23307;51.136;14.942;2022-08-19T00:47:37;7.15;;;5.15;;
37445;SDS011;23307;51.136;14.942;2022-08-19T00:50:03;6.13;;;4.55;;
37445;SDS011;23307;51.136;14.942;2022-08-19T00:52:31;5.03;;;4.10;;
37445;SDS011;23307;51.136;14.942;2022-08-19T00:54:59;6.25;;;3.95;;
37445;SDS011;23307;51.136;14.942;2022-08-19T00:57:30;5.70;;;4.00;;
37445;SDS011;23307;51.136;14.942;2022-08-19T00:59:59;5.68;;;4.07;;
37445;SDS011;23307;51.136;14.942;2022-08-19T01:02:27;4.93;;;3.90;;
37445;SDS011;23307;51.136;14.942;2022-08-19T01:04:54;5.07;;;3.50;;
37445;SDS011;23307;51.136;14.942;2022-08-19T01:07:20;6.60;;;3.90;;
37445;SDS011;23307;51.136;14.942;2022-08-19T01:09:46;5.90;;;3.97;;
37445;SDS011;23307;51.136;14.942;2022-08-19T01:12:11;8.13;;;4.57;;
37445;SDS011;23307;51.136;14.942;2022-08-19T01:14:37;6.53;;;4.97;;
37445;SDS011;23307;51.136;14.942;2022-08-19T01:17:04;7.00;;;5.30;;
37445;SDS011;23307;51.136;14.942;2022-08-19T01:19:36;6.30;;;5.70;;
37445;SDS011;23307;51.136;14.942;2022-08-19T01:22:06;7.88;;;5.10;;
37445;SDS011;23307;51.136;14.942;2022-08-19T01:24:37;7.68;;;5.38;;
37445;SDS011;23307;51.136;14.942;2022-08-19T01:27:04;10.48;;;5.50;;
37445;SDS011;23307;51.136;14.942;2022-08-19T01:29:30;6.75;;;5.47;;
37445;SDS011;23307;51.136;14.942;2022-08-19T01:31:57;9.25;;;4.97;;
37445;SDS011;23307;51.136;14.942;2022-08-19T01:34:24;7.85;;;5.32;;
37445;SDS011;23307;51.136;14.942;2022-08-19T01:36:49;5.70;;;4.57;;
37445;SDS011;23307;51.136;14.942;2022-08-19T01:39:16;6.70;;;4.53;;
37445;SDS011;23307;51.136;14.942;2022-08-19T01:41:46;6.20;;;4.97;;
37445;SDS011;23307;51.136;14.942;2022-08-19T01:44:12;5.40;;;4.55;;
37445;SDS011;23307;51.136;14.942;2022-08-19T01:46:39;7.10;;;4.35;;
37445;SDS011;23307;51.136;14.942;2022-08-19T01:49:05;5.97;;;4.60;;
37445;SDS011;23307;51.136;14.942;2022-08-19T01:51:32;5.85;;;4.20;;
37445;SDS011;23307;51.136;14.942;2022-08-19T01:53:58;6.55;;;4.13;;
37445;SDS011;23307;51.136;14.942;2022-08-19T01:56:24;5.30;;;3.17;;
37445;SDS011;23307;51.136;14.942;2022-08-19T01:58:51;6.68;;;3.17;;
37445;SDS011;23307;51.136;14.942;2022-08-19T02:01:20;6.75;;;3.30;;
37445;SDS011;23307;51.136;14.942;2022-08-19T02:03:45;7.70;;;3.60;;
37445;SDS011;23307;51.136;14.942;2022-08-19T02:06:11;6.57;;;3.17;;
37445;SDS011;23307;51.136;14.942;2022-08-19T02:08:37;5.00;;;3.22;;
37445;SDS011;23307;51.136;14.942;2022-08-19T02:11:03;5.60;;;4.05;;
37445;SDS011;23307;51.136;14.942;2022-08-19T02:13:30;7.07;;;5.18;;
37445;SDS011;23307;51.136;14.942;2022-08-19T02:15:56;6.30;;;5.05;;
37445;SDS011;23307;51.136;14.942;2022-08-19T02:18:22;7.78;;;6.75;;
37445;SDS011;23307;51.136;14.942;2022-08-19T02:20:48;8.70;;;7.80;;
37445;SDS011;23307;51.136;14.942;2022-08-19T02:23:14;11.63;;;8.20;;
37445;SDS011;23307;51.136;14.942;2022-08-19T02:25:41;10.05;;;9.05;;
37445;SDS011;23307;51.136;14.942;2022-08-19T02:28:11;13.55;;;9.52;;
37445;SDS011;23307;51.136;14.942;2022-08-19T02:30:37;10.02;;;9.13;;
37445;SDS011;23307;51.136;14.942;2022-08-19T02:33:03;11.38;;;10.20;;
37445;SDS011;23307;51.136;14.942;2022-08-19T02:35:29;11.07;;;10.05;;
37445;SDS011;23307;51.136;14.942;2022-08-19T02:37:55;11.55;;;10.18;;
37445;SDS011;23307;51.136;14.942;2022-08-19T02:40:39;11.55;;;10.35;;
37445;SDS011;23307;51.136;14.942;2022-08-19T02:43:05;11.55;;;10.32;;
37445;SDS011;23307;51.136;14.942;2022-08-19T02:45:33;12.20;;;11.00;;
37445;SDS011;23307;51.136;14.942;2022-08-19T02:48:03;12.32;;;11.05;;
37445;SDS011;23307;51.136;14.942;2022-08-19T02:50:29;11.07;;;9.98;;
37445;SDS011;23307;51.136;14.942;2022-08-19T02:52:55;13.90;;;11.85;;
37445;SDS011;23307;51.136;14.942;2022-08-19T02:55:21;13.38;;;12.18;;
37445;SDS011;23307;51.136;14.942;2022-08-19T02:57:47;14.82;;;12.63;;
37445;SDS011;23307;51.136;14.942;2022-08-19T03:00:13;13.07;;;11.90;;
37445;SDS011;23307;51.136;14.942;2022-08-19T03:02:39;14.13;;;11.85;;
37445;SDS011;23307;51.136;14.942;2022-08-19T03:05:05;13.93;;;12.55;;
37445;SDS011;23307;51.136;14.942;2022-08-19T03:07:32;13.55;;;12.25;;
37445;SDS011;23307;51.136;14.942;2022-08-19T03:09:57;14.05;;;12.60;;
37445;SDS011;23307;51.136;14.942;2022-08-19T03:12:23;13.35;;;11.95;;
37445;SDS011;23307;51.136;14.942;2022-08-19T03:14:49;14.75;;;13.27;;
37445;SDS011;23307;51.136;14.942;2022-08-19T03:17:15;17.15;;;12.77;;
37445;SDS011;23307;51.136;14.942;2022-08-19T03:19:41;14.30;;;12.70;;
37445;SDS011;23307;51.136;14.942;2022-08-19T03:22:07;14.55;;;13.25;;
37445;SDS011;23307;51.136;14.942;2022-08-19T03:24:34;15.52;;;13.73;;
37445;SDS011;23307;51.136;14.942;2022-08-19T03:26:59;14.73;;;13.32;;
37445;SDS011;23307;51.136;14.942;2022-08-19T03:29:26;15.35;;;13.57;;
37445;SDS011;23307;51.136;14.942;2022-08-19T03:31:53;14.52;;;13.05;;
37445;SDS011;23307;51.136;14.942;2022-08-19T03:34:21;14.88;;;13.57;;
37445;SDS011;23307;51.136;14.942;2022-08-19T03:36:51;15.00;;;13.60;;
37445;SDS011;23307;51.136;14.942;2022-08-19T03:39:19;14.73;;;13.32;;
37445;SDS011;23307;51.136;14.942;2022-08-19T03:41:45;14.75;;;13.27;;
37445;SDS011;23307;51.136;14.942;2022-08-19T03:44:14;15.38;;;13.77;;
37445;SDS011;23307;51.136;14.942;2022-08-19T03:46:42;15.55;;;14.05;;
37445;SDS011;23307;51.136;14.942;2022-08-19T03:49:08;16.23;;;14.05;;
37445;SDS011;23307;51.136;14.942;2022-08-19T03:51:35;15.57;;;14.07;;
37445;SDS011;23307;51.136;14.942;2022-08-19T03:54:03;16.92;;;15.32;;
37445;SDS011;23307;51.136;14.942;2022-08-19T03:56:32;17.13;;;15.43;;
37445;SDS011;23307;51.136;14.942;2022-08-19T03:58:59;16.35;;;14.75;;
37445;SDS011;23307;51.136;14.942;2022-08-19T04:01:26;17.05;;;15.50;;
37445;SDS011;23307;51.136;14.942;2022-08-19T04:03:53;17.20;;;15.60;;
37445;SDS011;23307;51.136;14.942;2022-08-19T04:06:22;17.88;;;16.00;;
37445;SDS011;23307;51.136;14.942;2022-08-19T04:08:50;17.10;;;15.48;;
37445;SDS011;23307;51.136;14.942;2022-08-19T04:11:20;17.50;;;15.50;;
37445;SDS011;23307;51.136;14.942;2022-08-19T04:13:47;18.92;;;17.08;;
37445;SDS011;23307;51.136;14.942;2022-08-19T04:16:16;18.05;;;16.27;;
37445;SDS011;23307;51.136;14.942;2022-08-19T04:18:46;17.45;;;15.88;;
37445;SDS011;23307;51.136;14.942;2022-08-19T04:21:17;18.40;;;16.50;;
37445;SDS011;23307;51.136;14.942;2022-08-19T04:23:45;17.85;;;16.15;;
37445;SDS011;23307;51.136;14.942;2022-08-19T04:26:15;18.63;;;16.73;;
37445;SDS011;23307;51.136;14.942;2022-08-19T04:28:48;18.80;;;16.90;;
37445;SDS011;23307;51.136;14.942;2022-08-19T04:31:16;18.75;;;16.95;;
37445;SDS011;23307;51.136;14.942;2022-08-19T04:33:53;19.55;;;17.60;;
37445;SDS011;23307;51.136;14.942;2022-08-19T04:36:20;19.63;;;17.73;;
37445;SDS011;23307;51.136;14.942;2022-08-19T04:38:47;20.48;;;18.02;;
37445;SDS011;23307;51.136;14.942;2022-08-19T04:41:13;20.05;;;18.15;;
37445;SDS011;23307;51.136;14.942;2022-08-19T04:43:58;19.20;;;17.35;;
37445;SDS011;23307;51.136;14.942;2022-08-19T04:46:24;18.85;;;17.10;;
37445;SDS011;23307;51.136;14.942;2022-08-19T04:48:49;20.30;;;18.30;;
37445;SDS011;23307;51.136;14.942;2022-08-19T04:51:15;18.83;;;16.92;;
37445;SDS011;23307;51.136;14.942;2022-08-19T04:53:41;18.17;;;16.48;;
37445;SDS011;23307;51.136;14.942;2022-08-19T04:56:09;19.00;;;17.05;;
37445;SDS011;23307;51.136;14.942;2022-08-19T04:58:38;19.00;;;17.20;;
37445;SDS011;23307;51.136;14.942;2022-08-19T05:01:07;17.30;;;15.70;;
37445;SDS011;23307;51.136;14.942;2022-08-19T05:03:35;17.45;;;15.75;;
37445;SDS011;23307;51.136;14.942;2022-08-19T05:06:04;17.30;;;15.52;;
37445;SDS011;23307;51.136;14.942;2022-08-19T05:08:32;17.65;;;16.02;;
37445;SDS011;23307;51.136;14.942;2022-08-19T05:10:59;17.13;;;15.52;;
37445;SDS011;23307;51.136;14.942;2022-08-19T05:13:25;16.88;;;15.18;;
37445;SDS011;23307;51.136;14.942;2022-08-19T05:15:58;16.70;;;15.10;;
37445;SDS011;23307;51.136;14.942;2022-08-19T05:18:24;16.05;;;14.55;;
37445;SDS011;23307;51.136;14.942;2022-08-19T05:21:19;15.68;;;14.18;;
37445;SDS011;23307;51.136;14.942;2022-08-19T05:24:04;15.68;;;14.20;;
37445;SDS011;23307;51.136;14.942;2022-08-19T05:26:37;15.95;;;14.23;;
37445;SDS011;23307;51.136;14.942;2022-08-19T05:29:07;17.00;;;15.20;;
37445;SDS011;23307;51.136;14.942;2022-08-19T05:31:34;16.17;;;14.57;;
37445;SDS011;23307;51.136;14.942;2022-08-19T05:34:00;14.32;;;13.02;;
37445;SDS011;23307;51.136;14.942;2022-08-19T05:36:26;15.30;;;13.60;;
37445;SDS011;23307;51.136;14.942;2022-08-19T05:38:54;15.23;;;13.73;;
37445;SDS011;23307;51.136;14.942;2022-08-19T05:41:20;15.75;;;13.25;;
37445;SDS011;23307;51.136;14.942;2022-08-19T05:43:54;13.88;;;12.60;;
37445;SDS011;23307;51.136;14.942;2022-08-19T05:46:20;15.52;;;13.95;;
37445;SDS011;23307;51.136;14.942;2022-08-19T05:48:47;16.05;;;14.57;;
37445;SDS011;23307;51.136;14.942;2022-08-19T05:51:13;15.20;;;13.77;;
37445;SDS011;23307;51.136;14.942;2022-08-19T05:53:39;15.73;;;14.23;;
37445;SDS011;23307;51.136;14.942;2022-08-19T05:56:05;19.08;;;15.25;;
37445;SDS011;23307;51.136;14.942;2022-08-19T05:58:33;16.67;;;14.95;;
37445;SDS011;23307;51.136;14.942;2022-08-19T06:01:00;15.80;;;14.23;;
37445;SDS011;23307;51.136;14.942;2022-08-19T06:03:33;15.80;;;14.25;;
37445;SDS011;23307;51.136;14.942;2022-08-19T06:05:59;16.92;;;15.30;;
37445;SDS011;23307;51.136;14.942;2022-08-19T06:08:25;16.17;;;14.70;;
37445;SDS011;23307;51.136;14.942;2022-08-19T06:10:51;17.13;;;15.50;;
37445;SDS011;23307;51.136;14.942;2022-08-19T06:13:17;16.33;;;14.75;;
37445;SDS011;23307;51.136;14.942;2022-08-19T06:15:44;16.08;;;14.48;;
37445;SDS011;23307;51.136;14.942;2022-08-19T06:18:11;16.13;;;14.63;;
37445;SDS011;23307;51.136;14.942;2022-08-19T06:20:37;15.32;;;13.82;;
37445;SDS011;23307;51.136;14.942;2022-08-19T06:23:03;15.07;;;13.55;;
37445;SDS011;23307;51.136;14.942;2022-08-19T06:25:28;14.20;;;12.75;;
37445;SDS011;23307;51.136;14.942;2022-08-19T06:27:54;17.83;;;13.32;;
37445;SDS011;23307;51.136;14.942;2022-08-19T06:30:20;15.05;;;13.55;;
37445;SDS011;23307;51.136;14.942;2022-08-19T06:32:45;15.07;;;13.50;;
37445;SDS011;23307;51.136;14.942;2022-08-19T06:35:11;14.32;;;13.02;;
37445;SDS011;23307;51.136;14.942;2022-08-19T06:37:39;12.90;;;11.43;;
37445;SDS011;23307;51.136;14.942;2022-08-19T06:40:05;15.15;;;13.43;;
37445;SDS011;23307;51.136;14.942;2022-08-19T06:42:32;14.82;;;13.43;;
37445;SDS011;23307;51.136;14.942;2022-08-19T06:44:57;14.10;;;12.35;;
37445;SDS011;23307;51.136;14.942;2022-08-19T06:47:23;15.50;;;13.18;;
37445;SDS011;23307;51.136;14.942;2022-08-19T06:49:49;15.43;;;14.02;;
37445;SDS011;23307;51.136;14.942;2022-08-19T06:52:14;16.35;;;14.65;;
37445;SDS011;23307;51.136;14.942;2022-08-19T06:54:41;16.83;;;15.25;;
37445;SDS011;23307;51.136;14.942;2022-08-19T06:57:07;19.13;;;16.10;;
37445;SDS011;23307;51.136;14.942;2022-08-19T06:59:38;18.40;;;16.60;;
37445;SDS011;23307;51.136;14.942;2022-08-19T07:02:04;19.92;;;17.85;;
37445;SDS011;23307;51.136;14.942;2022-08-19T07:04:32;19.73;;;17.50;;
37445;SDS011;23307;51.136;14.942;2022-08-19T07:07:09;17.73;;;16.13;;
37445;SDS011;23307;51.136;14.942;2022-08-19T07:09:38;20.65;;;18.45;;
37445;SDS011;23307;51.136;14.942;2022-08-19T07:12:06;19.75;;;17.85;;
37445;SDS011;23307;51.136;14.942;2022-08-19T07:14:34;19.17;;;17.33;;
37445;SDS011;23307;51.136;14.942;2022-08-19T07:17:04;19.25;;;17.25;;
37445;SDS011;23307;51.136;14.942;2022-08-19T07:19:33;19.50;;;17.50;;
37445;SDS011;23307;51.136;14.942;2022-08-19T07:22:00;19.17;;;17.15;;
37445;SDS011;23307;51.136;14.942;2022-08-19T07:24:27;18.00;;;16.30;;
37445;SDS011;23307;51.136;14.942;2022-08-19T07:26:54;19.65;;;17.67;;
37445;SDS011;23307;51.136;14.942;2022-08-19T07:29:22;18.60;;;16.75;;
37445;SDS011;23307;51.136;14.942;2022-08-19T07:31:48;21.90;;;18.00;;
37445;SDS011;23307;51.136;14.942;2022-08-19T07:34:15;18.70;;;16.80;;
37445;SDS011;23307;51.136;14.942;2022-08-19T07:36:41;18.58;;;16.77;;
37445;SDS011;23307;51.136;14.942;2022-08-19T07:39:10;19.92;;;18.05;;
37445;SDS011;23307;51.136;14.942;2022-08-19T07:41:43;19.63;;;17.73;;
37445;SDS011;23307;51.136;14.942;2022-08-19T07:44:09;22.30;;;17.15;;
37445;SDS011;23307;51.136;14.942;2022-08-19T07:46:35;18.60;;;16.83;;
37445;SDS011;23307;51.136;14.942;2022-08-19T07:49:03;18.35;;;16.50;;
37445;SDS011;23307;51.136;14.942;2022-08-19T07:51:29;19.95;;;17.95;;
37445;SDS011;23307;51.136;14.942;2022-08-19T07:53:55;19.52;;;17.42;;
37445;SDS011;23307;51.136;14.942;2022-08-19T07:56:21;19.35;;;17.27;;
37445;SDS011;23307;51.136;14.942;2022-08-19T07:58:48;18.40;;;16.13;;
37445;SDS011;23307;51.136;14.942;2022-08-19T08:01:17;18.15;;;16.15;;
37445;SDS011;23307;51.136;14.942;2022-08-19T08:03:45;17.73;;;16.02;;
37445;SDS011;23307;51.136;14.942;2022-08-19T08:06:30;17.92;;;16.05;;
37445;SDS011;23307;51.136;14.942;2022-08-19T08:09:16;18.55;;;16.75;;
37445;SDS011;23307;51.136;14.942;2022-08-19T08:11:49;18.10;;;16.23;;
37445;SDS011;23307;51.136;14.942;2022-08-19T08:14:22;17.48;;;15.02;;
37445;SDS011;23307;51.136;14.942;2022-08-19T08:16:50;16.38;;;14.68;;
37445;SDS011;23307;51.136;14.942;2022-08-19T08:19:19;15.52;;;13.90;;
37445;SDS011;23307;51.136;14.942;2022-08-19T08:21:46;16.73;;;14.32;;
37445;SDS011;23307;51.136;14.942;2022-08-19T08:24:12;16.80;;;14.23;;
37445;SDS011;23307;51.136;14.942;2022-08-19T08:26:38;15.90;;;13.93;;
37445;SDS011;23307;51.136;14.942;2022-08-19T08:29:04;15.38;;;13.77;;
37445;SDS011;23307;51.136;14.942;2022-08-19T08:31:32;16.65;;;14.90;;
37445;SDS011;23307;51.136;14.942;2022-08-19T08:33:58;16.83;;;15.10;;
37445;SDS011;23307;51.136;14.942;2022-08-19T08:36:24;16.98;;;14.75;;
37445;SDS011;23307;51.136;14.942;2022-08-19T08:38:50;16.90;;;14.48;;
37445;SDS011;23307;51.136;14.942;2022-08-19T08:41:35;15.27;;;13.77;;
37445;SDS011;23307;51.136;14.942;2022-08-19T08:44:20;13.65;;;12.35;;
37445;SDS011;23307;51.136;14.942;2022-08-19T08:47:09;11.55;;;10.38;;
37445;SDS011;23307;51.136;14.942;2022-08-19T08:49:41;8.02;;;7.32;;
37445;SDS011;23307;51.136;14.942;2022-08-19T08:52:18;7.03;;;6.15;;
37445;SDS011;23307;51.136;14.942;2022-08-19T08:54:49;7.32;;;4.53;;
37445;SDS011;23307;51.136;14.942;2022-08-19T08:58:20;5.22;;;4.50;;
37445;SDS011;23307;51.136;14.942;2022-08-19T09:00:21;3.78;;;3.47;;
37445;SDS011;23307;51.136;14.942;2022-08-19T09:02:53;3.55;;;3.25;;
37445;SDS011;23307;51.136;14.942;2022-08-19T09:05:20;4.70;;;3.60;;
37445;SDS011;23307;51.136;14.942;2022-08-19T09:08:03;3.70;;;3.40;;
37445;SDS011;23307;51.136;14.942;2022-08-19T09:13:19;3.50;;;3.20;;
37445;SDS011;23307;51.136;14.942;2022-08-19T09:15:55;6.00;;;3.50;;
37445;SDS011;23307;51.136;14.942;2022-08-19T09:18:26;4.68;;;3.13;;
37445;SDS011;23307;51.136;14.942;2022-08-19T09:21:08;3.47;;;3.17;;
37445;SDS011;23307;51.136;14.942;2022-08-19T09:23:34;5.75;;;2.78;;
37445;SDS011;23307;51.136;14.942;2022-08-19T09:26:01;3.25;;;2.95;;
37445;SDS011;23307;51.136;14.942;2022-08-19T09:28:31;2.70;;;2.50;;
37445;SDS011;23307;51.136;14.942;2022-08-19T09:30:56;2.95;;;2.10;;
37445;SDS011;23307;51.136;14.942;2022-08-19T09:33:22;3.40;;;2.38;;
37445;SDS011;23307;51.136;14.942;2022-08-19T09:35:47;2.60;;;2.40;;
37445;SDS011;23307;51.136;14.942;2022-08-19T09:38:13;3.63;;;2.75;;
37445;SDS011;23307;51.136;14.942;2022-08-19T09:40:38;3.20;;;2.90;;
37445;SDS011;23307;51.136;14.942;2022-08-19T09:43:04;3.42;;;3.13;;
37445;SDS011;23307;51.136;14.942;2022-08-19T09:45:30;3.75;;;3.35;;
37445;SDS011;23307;51.136;14.942;2022-08-19T09:47:55;5.68;;;4.00;;
37445;SDS011;23307;51.136;14.942;2022-08-19T09:50:22;4.57;;;3.88;;
37445;SDS011;23307;51.136;14.942;2022-08-19T09:52:48;5.25;;;4.78;;
37445;SDS011;23307;51.136;14.942;2022-08-19T09:55:14;8.32;;;4.95;;
37445;SDS011;23307;51.136;14.942;2022-08-19T09:57:41;4.88;;;4.45;;
37445;SDS011;23307;51.136;14.942;2022-08-19T10:00:07;5.07;;;4.57;;
37445;SDS011;23307;51.136;14.942;2022-08-19T10:02:34;5.00;;;4.55;;
37445;SDS011;23307;51.136;14.942;2022-08-19T10:05:00;6.20;;;5.13;;
37445;SDS011;23307;51.136;14.942;2022-08-19T10:07:44;5.50;;;5.00;;
37445;SDS011;23307;51.136;14.942;2022-08-19T10:10:10;5.90;;;5.40;;
37445;SDS011;23307;51.136;14.942;2022-08-19T10:12:35;5.63;;;5.13;;
37445;SDS011;23307;51.136;14.942;2022-08-19T10:15:01;5.43;;;4.85;;
37445;SDS011;23307;51.136;14.942;2022-08-19T10:17:27;5.55;;;5.05;;
37445;SDS011;23307;51.136;14.942;2022-08-19T10:19:54;5.70;;;5.05;;
37445;SDS011;23307;51.136;14.942;2022-08-19T10:22:19;5.65;;;5.18;;
37445;SDS011;23307;51.136;14.942;2022-08-19T10:24:46;6.85;;;5.57;;
37445;SDS011;23307;51.136;14.942;2022-08-19T10:27:11;5.60;;;5.10;;
37445;SDS011;23307;51.136;14.942;2022-08-19T10:29:38;6.20;;;5.15;;
37445;SDS011;23307;51.136;14.942;2022-08-19T10:32:05;6.07;;;5.40;;
37445;SDS011;23307;51.136;14.942;2022-08-19T10:34:33;6.50;;;5.90;;
37445;SDS011;23307;51.136;14.942;2022-08-19T10:37:00;6.10;;;5.55;;
37445;SDS011;23307;51.136;14.942;2022-08-19T10:39:29;5.82;;;5.32;;
37445;SDS011;23307;51.136;14.942;2022-08-19T10:41:55;5.93;;;5.30;;
37445;SDS011;23307;51.136;14.942;2022-08-19T10:44:21;7.15;;;5.68;;
37445;SDS011;23307;51.136;14.942;2022-08-19T10:46:48;5.63;;;5.13;;
37445;SDS011;23307;51.136;14.942;2022-08-19T10:49:14;6.95;;;4.95;;
37445;SDS011;23307;51.136;14.942;2022-08-19T10:51:40;6.07;;;5.47;;
37445;SDS011;23307;51.136;14.942;2022-08-19T10:54:24;4.85;;;4.45;;
37445;SDS011;23307;51.136;14.942;2022-08-19T10:57:10;5.97;;;5.40;;
37445;SDS011;23307;51.136;14.942;2022-08-19T10:59:36;5.70;;;5.10;;
37445;SDS011;23307;51.136;14.942;2022-08-19T11:02:04;7.45;;;5.18;;
37445;SDS011;23307;51.136;14.942;2022-08-19T11:04:31;5.47;;;4.80;;
37445;SDS011;23307;51.136;14.942;2022-08-19T11:06:57;4.95;;;4.55;;
37445;SDS011;23307;51.136;14.942;2022-08-19T11:09:24;5.28;;;4.88;;
37445;SDS011;23307;51.136;14.942;2022-08-19T11:11:51;5.57;;;5.03;;
37445;SDS011;23307;51.136;14.942;2022-08-19T11:14:17;5.03;;;4.63;;
37445;SDS011;23307;51.136;14.942;2022-08-19T11:16:45;5.40;;;4.90;;
37445;SDS011;23307;51.136;14.942;2022-08-19T11:19:11;5.22;;;4.80;;
37445;SDS011;23307;51.136;14.942;2022-08-19T11:21:38;6.03;;;5.50;;
37445;SDS011;23307;51.136;14.942;2022-08-19T11:24:07;5.60;;;5.10;;
37445;SDS011;23307;51.136;14.942;2022-08-19T11:26:36;5.30;;;4.45;;
37445;SDS011;23307;51.136;14.942;2022-08-19T11:29:03;5.47;;;5.07;;
37445;SDS011;23307;51.136;14.942;2022-08-19T11:31:31;5.38;;;4.88;;
37445;SDS011;23307;51.136;14.942;2022-08-19T11:34:00;5.18;;;4.78;;
37445;SDS011;23307;51.136;14.942;2022-08-19T11:36:28;5.25;;;4.85;;
37445;SDS011;23307;51.136;14.942;2022-08-19T11:38:55;6.35;;;5.40;;
37445;SDS011;23307;51.136;14.942;2022-08-19T11:41:22;5.57;;;5.07;;
37445;SDS011;23307;51.136;14.942;2022-08-19T11:43:48;5.88;;;5.35;;
37445;SDS011;23307;51.136;14.942;2022-08-19T11:46:16;6.43;;;5.18;;
37445;SDS011;23307;51.136;14.942;2022-08-19T11:48:42;5.68;;;5.28;;
37445;SDS011;23307;51.136;14.942;2022-08-19T11:51:12;5.68;;;5.18;;
37445;SDS011;23307;51.136;14.942;2022-08-19T11:53:41;5.50;;;5.00;;
37445;SDS011;23307;51.136;14.942;2022-08-19T11:56:07;6.60;;;6.00;;
37445;SDS011;23307;51.136;14.942;2022-08-19T11:58:34;5.78;;;5.28;;
37445;SDS011;23307;51.136;14.942;2022-08-19T12:01:00;5.93;;;5.43;;
37445;SDS011;23307;51.136;14.942;2022-08-19T12:03:29;5.38;;;4.97;;
37445;SDS011;23307;51.136;14.942;2022-08-19T12:05:55;5.25;;;4.75;;
37445;SDS011;23307;51.136;14.942;2022-08-19T12:08:21;5.38;;;4.78;;
37445;SDS011;23307;51.136;14.942;2022-08-19T12:10:47;5.38;;;4.88;;
37445;SDS011;23307;51.136;14.942;2022-08-19T12:13:14;5.28;;;4.78;;
37445;SDS011;23307;51.136;14.942;2022-08-19T12:15:44;5.38;;;4.88;;
37445;SDS011;23307;51.136;14.942;2022-08-19T12:18:11;5.75;;;5.10;;
37445;SDS011;23307;51.136;14.942;2022-08-19T12:20:39;5.50;;;5.00;;
37445;SDS011;23307;51.136;14.942;2022-08-19T12:23:06;6.30;;;5.55;;
37445;SDS011;23307;51.136;14.942;2022-08-19T12:25:34;5.78;;;5.28;;
37445;SDS011;23307;51.136;14.942;2022-08-19T12:28:00;6.00;;;5.50;;
37445;SDS011;23307;51.136;14.942;2022-08-19T12:30:26;5.82;;;5.32;;
37445;SDS011;23307;51.136;14.942;2022-08-19T12:32:52;6.00;;;5.45;;
37445;SDS011;23307;51.136;14.942;2022-08-19T12:35:18;7.43;;;6.13;;
37445;SDS011;23307;51.136;14.942;2022-08-19T12:37:47;7.03;;;6.43;;
37445;SDS011;23307;51.136;14.942;2022-08-19T12:40:14;7.88;;;7.10;;
37445;SDS011;23307;51.136;14.942;2022-08-19T12:42:42;8.23;;;7.53;;
37445;SDS011;23307;51.136;14.942;2022-08-19T12:45:09;7.53;;;6.82;;
37445;SDS011;23307;51.136;14.942;2022-08-19T12:47:36;7.25;;;6.57;;
37445;SDS011;23307;51.136;14.942;2022-08-19T12:50:02;8.55;;;7.03;;
37445;SDS011;23307;51.136;14.942;2022-08-19T12:52:28;8.32;;;7.43;;
37445;SDS011;23307;51.136;14.942;2022-08-19T12:54:54;7.60;;;6.90;;
37445;SDS011;23307;51.136;14.942;2022-08-19T12:57:22;9.23;;;7.53;;
37445;SDS011;23307;51.136;14.942;2022-08-19T12:59:51;8.10;;;7.40;;
37445;SDS011;23307;51.136;14.942;2022-08-19T13:02:18;8.80;;;8.00;;
37445;SDS011;23307;51.136;14.942;2022-08-19T13:04:44;8.98;;;8.18;;
37445;SDS011;23307;51.136;14.942;2022-08-19T13:07:10;9.07;;;8.27;;
37445;SDS011;23307;51.136;14.942;2022-08-19T13:09:35;9.10;;;8.27;;
37445;SDS011;23307;51.136;14.942;2022-08-19T13:12:01;9.37;;;8.47;;
37445;SDS011;23307;51.136;14.942;2022-08-19T13:14:28;9.38;;;8.20;;
37445;SDS011;23307;51.136;14.942;2022-08-19T13:16:55;8.02;;;7.30;;
37445;SDS011;23307;51.136;14.942;2022-08-19T13:19:22;8.00;;;7.30;;
37445;SDS011;23307;51.136;14.942;2022-08-19T13:21:51;9.07;;;8.18;;
37445;SDS011;23307;51.136;14.942;2022-08-19T13:24:17;8.02;;;7.32;;
37445;SDS011;23307;51.136;14.942;2022-08-19T13:26:43;8.02;;;7.22;;
37445;SDS011;23307;51.136;14.942;2022-08-19T13:29:08;8.27;;;7.47;;
37445;SDS011;23307;51.136;14.942;2022-08-19T13:31:52;7.80;;;7.00;;
37445;SDS011;23307;51.136;14.942;2022-08-19T13:34:37;7.88;;;7.18;;
37445;SDS011;23307;51.136;14.942;2022-08-19T13:37:03;8.00;;;7.30;;
37445;SDS011;23307;51.136;14.942;2022-08-19T13:39:29;8.73;;;7.85;;
37445;SDS011;23307;51.136;14.942;2022-08-19T13:41:59;8.52;;;7.72;;
37445;SDS011;23307;51.136;14.942;2022-08-19T13:44:26;8.40;;;7.70;;
37445;SDS011;23307;51.136;14.942;2022-08-19T13:46:54;8.48;;;7.63;;
37445;SDS011;23307;51.136;14.942;2022-08-19T13:49:24;8.77;;;7.80;;
37445;SDS011;23307;51.136;14.942;2022-08-19T13:51:52;8.15;;;7.40;;
37445;SDS011;23307;51.136;14.942;2022-08-19T13:54:18;7.18;;;6.57;;
37445;SDS011;23307;51.136;14.942;2022-08-19T13:56:44;7.25;;;6.65;;
37445;SDS011;23307;51.136;14.942;2022-08-19T13:59:10;8.05;;;7.35;;
37445;SDS011;23307;51.136;14.942;2022-08-19T14:01:37;9.02;;;7.60;;
37445;SDS011;23307;51.136;14.942;2022-08-19T14:04:03;8.30;;;7.50;;
37445;SDS011;23307;51.136;14.942;2022-08-19T14:06:32;8.95;;;7.97;;
37445;SDS011;23307;51.136;14.942;2022-08-19T14:08:57;12.52;;;9.27;;
37445;SDS011;23307;51.136;14.942;2022-08-19T14:11:23;13.23;;;11.90;;
37445;SDS011;23307;51.136;14.942;2022-08-19T14:13:49;13.00;;;11.70;;
37445;SDS011;23307;51.136;14.942;2022-08-19T14:16:15;13.88;;;12.23;;
37445;SDS011;23307;51.136;14.942;2022-08-19T14:18:41;12.98;;;11.60;;
37445;SDS011;23307;51.136;14.942;2022-08-19T14:21:07;13.73;;;12.40;;
37445;SDS011;23307;51.136;14.942;2022-08-19T14:23:38;11.73;;;10.40;;
37445;SDS011;23307;51.136;14.942;2022-08-19T14:26:09;12.25;;;11.02;;
37445;SDS011;23307;51.136;14.942;2022-08-19T14:28:37;12.88;;;11.48;;
37445;SDS011;23307;51.136;14.942;2022-08-19T14:31:04;13.65;;;11.90;;